createdAt,value
2023-02-27T00:00:21.383Z,3.70
2023-02-27T00:02:51.336Z,3.70
2023-02-27T00:05:19.425Z,2.10
2023-02-27T00:07:46.427Z,3.60
2023-02-27T00:10:14.304Z,3.60
2023-02-27T00:15:18.751Z,3.50
2023-02-27T00:17:46.008Z,3.40
2023-02-27T00:20:16.811Z,3.40
2023-02-27T00:22:44.958Z,3.40
2023-02-27T00:25:13.126Z,3.40
2023-02-27T00:27:41.036Z,3.30
2023-02-27T00:30:13.420Z,3.20
2023-02-27T00:32:40.714Z,3.30
2023-02-27T00:35:10.973Z,3.30
2023-02-27T00:37:38.080Z,3.20
2023-02-27T00:40:06.146Z,3.30
2023-02-27T00:42:33.537Z,3.20
2023-02-27T00:45:00.365Z,3.20
2023-02-27T00:47:27.096Z,3.20
2023-02-27T00:49:53.848Z,3.20
2023-02-27T00:52:20.903Z,3.30
2023-02-27T00:54:47.626Z,3.20
2023-02-27T00:57:14.689Z,3.20
2023-02-27T00:59:41.492Z,3.20
2023-02-27T01:02:08.211Z,3.20
2023-02-27T01:04:35.281Z,3.00
2023-02-27T01:07:03.430Z,3.20
2023-02-27T01:09:30.148Z,3.20
2023-02-27T01:11:57.577Z,3.20
2023-02-27T01:14:24.719Z,3.10
2023-02-27T01:16:51.480Z,3.10
2023-02-27T01:19:18.477Z,3.20
2023-02-27T01:21:45.599Z,3.10
2023-02-27T01:26:40.140Z,3.10
2023-02-27T01:29:07.038Z,3.20
2023-02-27T01:31:34.293Z,3.00
2023-02-27T01:34:01.094Z,3.10
2023-02-27T01:36:28.114Z,3.10
2023-02-27T01:38:54.847Z,3.10
2023-02-27T01:41:21.589Z,3.10
2023-02-27T01:44:07.361Z,3.10
2023-02-27T01:46:35.385Z,3.00
2023-02-27T01:49:34.384Z,3.00
2023-02-27T01:52:06.679Z,3.00
2023-02-27T01:54:40.580Z,3.00
2023-02-27T01:57:09.675Z,3.00
2023-02-27T01:59:40.654Z,3.00
2023-02-27T02:02:18.505Z,2.90
2023-02-27T02:04:46.349Z,3.00
2023-02-27T02:07:19.112Z,3.00
2023-02-27T02:09:51.510Z,2.90
2023-02-27T02:12:24.215Z,2.90
2023-02-27T02:14:51.724Z,2.90
2023-02-27T02:17:30.061Z,2.90
2023-02-27T02:20:28.270Z,2.90
2023-02-27T02:23:22.012Z,2.90
2023-02-27T02:26:24.875Z,2.90
2023-02-27T02:29:45.155Z,2.90
2023-02-27T02:32:26.246Z,2.80
2023-02-27T02:35:33.051Z,2.80
2023-02-27T02:38:05.984Z,2.80
2023-02-27T02:40:42.761Z,2.80
2023-02-27T02:43:40.798Z,2.70
2023-02-27T02:46:18.773Z,2.80
2023-02-27T02:48:56.106Z,2.80
2023-02-27T02:51:35.547Z,2.80
2023-02-27T02:54:21.827Z,2.80
2023-02-27T02:57:00.326Z,2.80
2023-02-27T02:59:38.686Z,2.80
2023-02-27T03:02:16.327Z,2.80
2023-02-27T03:04:54.859Z,2.80
2023-02-27T03:07:33.541Z,2.90
2023-02-27T03:10:11.588Z,2.90
2023-02-27T03:12:45.267Z,2.80
2023-02-27T03:15:36.686Z,2.80
2023-02-27T03:18:10.320Z,2.80
2023-02-27T03:20:45.682Z,2.80
2023-02-27T03:23:21.652Z,2.80
2023-02-27T03:25:51.225Z,2.70
2023-02-27T03:28:27.664Z,2.70
2023-02-27T03:31:22.593Z,2.70
2023-02-27T03:34:02.407Z,2.70
2023-02-27T03:36:49.921Z,2.70
2023-02-27T03:39:27.443Z,2.70
2023-02-27T03:42:47.299Z,2.60
2023-02-27T03:45:38.658Z,2.60
2023-02-27T03:48:07.745Z,2.60
2023-02-27T03:50:36.784Z,2.60
2023-02-27T03:53:21.476Z,2.60
2023-02-27T03:55:51.445Z,2.50
2023-02-27T03:58:18.321Z,2.50
2023-02-27T04:00:45.670Z,2.60
2023-02-27T04:05:39.862Z,2.50
2023-02-27T04:08:32.152Z,2.50
2023-02-27T04:11:37.284Z,2.50
2023-02-27T04:14:40.240Z,2.50
2023-02-27T04:17:23.797Z,2.40
2023-02-27T04:20:27.012Z,2.40
2023-02-27T04:23:07.024Z,2.40
2023-02-27T04:25:50.023Z,2.40
2023-02-27T04:28:39.899Z,2.40
2023-02-27T04:31:38.818Z,2.40
2023-02-27T04:34:24.613Z,2.40
2023-02-27T04:37:11.617Z,2.30
2023-02-27T04:40:02.390Z,2.30
2023-02-27T04:42:38.777Z,2.30
2023-02-27T04:45:15.120Z,2.30
2023-02-27T04:47:56.042Z,2.30
2023-02-27T04:50:35.402Z,2.20
2023-02-27T04:53:19.508Z,2.20
2023-02-27T04:55:57.055Z,2.20
2023-02-27T04:58:32.300Z,2.20
2023-02-27T05:01:06.572Z,2.20
2023-02-27T05:03:46.892Z,2.20
2023-02-27T05:06:18.947Z,2.20
2023-02-27T05:09:03.204Z,2.20
2023-02-27T05:11:56.677Z,2.20
2023-02-27T05:14:36.706Z,2.20
2023-02-27T05:17:11.765Z,2.20
2023-02-27T05:19:42.536Z,2.20
2023-02-27T05:22:41.031Z,2.20
2023-02-27T05:25:26.936Z,2.20
2023-02-27T05:28:22.370Z,2.30
2023-02-27T05:31:03.461Z,2.30
2023-02-27T05:33:48.555Z,2.20
2023-02-27T05:36:30.538Z,2.20
2023-02-27T05:39:05.533Z,2.20
2023-02-27T05:41:43.191Z,2.20
2023-02-27T05:44:17.279Z,2.20
2023-02-27T05:46:53.441Z,2.20
2023-02-27T05:49:45.457Z,2.20
2023-02-27T05:52:18.698Z,2.20
2023-02-27T05:54:59.161Z,2.20
2023-02-27T05:57:37.380Z,2.20
2023-02-27T06:00:28.137Z,2.20
2023-02-27T06:05:24.784Z,2.20
2023-02-27T06:10:21.096Z,2.20
2023-02-27T06:12:48.427Z,2.20
2023-02-27T06:15:17.363Z,2.20
2023-02-27T06:17:44.120Z,2.20
2023-02-27T06:20:12.136Z,2.30
2023-02-27T06:22:38.859Z,2.20
2023-02-27T06:25:06.494Z,2.30
2023-02-27T06:27:33.286Z,2.30
2023-02-27T06:30:00.017Z,2.20
2023-02-27T06:32:26.839Z,2.30
2023-02-27T06:34:53.584Z,2.40
2023-02-27T06:37:21.939Z,2.40
2023-02-27T06:39:48.718Z,3.60
2023-02-27T06:42:16.040Z,2.40
2023-02-27T06:44:42.874Z,2.40
2023-02-27T06:47:09.723Z,2.60
2023-02-27T06:49:36.612Z,2.60
2023-02-27T06:52:03.355Z,2.70
2023-02-27T06:54:30.137Z,2.70
2023-02-27T06:56:57.169Z,2.70
2023-02-27T06:59:23.884Z,2.80
2023-02-27T07:01:50.715Z,2.80
2023-02-27T07:04:17.873Z,2.90
2023-02-27T07:07:35.759Z,2.90
2023-02-27T07:09:31.803Z,2.90
2023-02-27T07:11:58.585Z,3.00
2023-02-27T07:14:25.724Z,3.00
2023-02-27T07:16:55.268Z,3.10
2023-02-27T07:19:24.773Z,3.20
2023-02-27T07:21:51.662Z,3.20
2023-02-27T07:24:18.985Z,3.20
2023-02-27T07:26:45.778Z,3.30
2023-02-27T07:29:14.729Z,3.30
2023-02-27T07:31:41.872Z,3.30
2023-02-27T07:34:11.678Z,3.30
2023-02-27T07:36:39.234Z,3.50
2023-02-27T07:39:08.681Z,3.40
2023-02-27T07:41:35.425Z,3.40
2023-02-27T07:44:02.338Z,3.30
2023-02-27T07:46:29.389Z,3.40
2023-02-27T07:48:56.353Z,3.50
2023-02-27T07:51:23.329Z,3.30
2023-02-27T07:53:50.072Z,3.50
2023-02-27T07:56:16.844Z,3.50
2023-02-27T07:58:43.609Z,3.60
2023-02-27T08:01:10.382Z,3.60
2023-02-27T08:03:37.095Z,3.60
2023-02-27T08:06:03.902Z,3.60
2023-02-27T08:08:30.673Z,3.60
2023-02-27T08:10:57.553Z,3.60
2023-02-27T08:13:55.747Z,3.70
2023-02-27T08:16:11.702Z,3.70
2023-02-27T08:18:38.858Z,3.70
2023-02-27T08:21:06.063Z,3.80
2023-02-27T08:23:34.926Z,3.90
2023-02-27T08:26:03.220Z,3.90
2023-02-27T08:28:30.223Z,4.00
2023-02-27T08:30:57.110Z,4.00
2023-02-27T08:33:24.513Z,4.30
2023-02-27T08:35:51.621Z,4.30
2023-02-27T08:38:18.524Z,4.30
2023-02-27T08:40:45.352Z,4.40
2023-02-27T08:43:12.108Z,4.50
2023-02-27T08:45:38.884Z,4.60
2023-02-27T08:48:05.897Z,4.70
2023-02-27T08:50:32.606Z,4.70
2023-02-27T08:52:59.380Z,4.80
2023-02-27T08:57:53.279Z,4.90
2023-02-27T09:00:20.876Z,5.90
2023-02-27T09:02:47.904Z,5.10
2023-02-27T09:05:14.784Z,5.20
2023-02-27T09:07:42.060Z,5.30
2023-02-27T09:10:10.079Z,5.30
2023-02-27T09:12:37.502Z,5.40
2023-02-27T09:17:33.146Z,5.50
2023-02-27T09:20:00.424Z,5.50
2023-02-27T09:22:27.228Z,5.50
2023-02-27T09:24:54.004Z,5.50
2023-02-27T09:27:20.738Z,5.60
2023-02-27T09:29:49.496Z,5.50
2023-02-27T09:32:16.258Z,5.60
2023-02-27T09:34:43.051Z,5.60
2023-02-27T09:37:09.789Z,5.70
2023-02-27T09:39:36.525Z,5.70
2023-02-27T09:42:23.252Z,5.80
2023-02-27T09:44:55.798Z,5.90
2023-02-27T09:47:33.586Z,7.50
2023-02-27T09:50:06.588Z,6.10
2023-02-27T09:52:37.333Z,6.20
2023-02-27T09:55:18.989Z,6.40
2023-02-27T09:57:58.980Z,6.30
2023-02-27T10:01:18.609Z,6.40
2023-02-27T10:04:11.090Z,6.60
2023-02-27T10:06:51.968Z,6.60
2023-02-27T10:09:50.927Z,6.70
2023-02-27T10:12:50.725Z,6.80
2023-02-27T10:15:40.587Z,6.90
2023-02-27T10:18:27.625Z,7.10
2023-02-27T10:21:00.216Z,7.10
2023-02-27T10:23:41.288Z,7.20
2023-02-27T10:26:22.656Z,7.30
2023-02-27T10:31:25.454Z,7.50
2023-02-27T10:33:53.510Z,7.60
2023-02-27T10:36:32.994Z,7.60
2023-02-27T10:39:07.289Z,7.80
2023-02-27T10:41:36.335Z,7.70
2023-02-27T10:44:03.951Z,7.90
2023-02-27T10:46:36.526Z,7.90
2023-02-27T10:49:14.656Z,7.90
2023-02-27T10:51:44.394Z,7.90
2023-02-27T10:54:26.442Z,8.00
2023-02-27T10:57:00.694Z,8.00
2023-02-27T10:59:40.409Z,8.10
2023-02-27T11:02:16.286Z,8.20
2023-02-27T11:04:53.797Z,8.20
2023-02-27T11:07:53.338Z,8.30
2023-02-27T11:10:27.584Z,8.40
2023-02-27T11:13:21.655Z,8.40
2023-02-27T11:16:23.033Z,8.50
2023-02-27T11:18:54.301Z,8.60
2023-02-27T11:21:27.005Z,8.50
2023-02-27T11:24:04.283Z,8.60
2023-02-27T11:26:36.870Z,8.50
2023-02-27T11:29:18.302Z,8.40
2023-02-27T11:31:57.217Z,8.60
2023-02-27T11:34:40.841Z,8.50
2023-02-27T11:37:24.002Z,8.50
2023-02-27T11:40:02.302Z,8.50
2023-02-27T11:42:33.886Z,8.50
2023-02-27T11:46:12.931Z,8.50
2023-02-27T11:48:31.556Z,8.50
2023-02-27T11:51:26.346Z,8.50
2023-02-27T11:54:32.318Z,8.40
2023-02-27T11:57:10.068Z,8.40
2023-02-27T11:59:53.316Z,8.40
2023-02-27T12:02:41.805Z,8.40
2023-02-27T12:05:21.382Z,8.30
2023-02-27T12:08:07.650Z,8.40
2023-02-27T12:11:13.146Z,8.50
2023-02-27T12:13:47.304Z,8.40
2023-02-27T12:16:44.656Z,8.50
2023-02-27T12:19:33.499Z,8.50
2023-02-27T12:22:17.427Z,8.60
2023-02-27T12:25:13.673Z,8.40
2023-02-27T12:27:54.347Z,8.60
2023-02-27T12:30:41.485Z,13.00
2023-02-27T12:33:32.216Z,8.60
2023-02-27T12:36:03.797Z,8.50
2023-02-27T12:38:31.171Z,8.50
2023-02-27T12:41:24.175Z,8.50
2023-02-27T12:44:24.401Z,8.40
2023-02-27T12:47:12.092Z,8.40
2023-02-27T12:49:59.014Z,8.40
2023-02-27T12:52:42.788Z,8.40
2023-02-27T12:55:28.646Z,8.40
2023-02-27T12:58:22.914Z,8.40
2023-02-27T13:01:18.306Z,8.50
2023-02-27T13:04:02.228Z,8.60
2023-02-27T13:07:00.373Z,8.70
2023-02-27T13:09:52.023Z,8.60
2023-02-27T13:12:40.824Z,8.70
2023-02-27T13:15:34.462Z,8.80
2023-02-27T13:18:13.516Z,8.90
2023-02-27T13:20:56.623Z,8.80
2023-02-27T13:23:35.303Z,8.90
2023-02-27T13:26:18.735Z,8.90
2023-02-27T13:28:46.395Z,9.00
2023-02-27T13:31:34.776Z,8.90
2023-02-27T13:34:29.529Z,8.90
2023-02-27T13:37:03.582Z,8.80
2023-02-27T13:39:45.915Z,8.80
2023-02-27T13:42:28.042Z,8.80
2023-02-27T13:45:02.423Z,8.70
2023-02-27T13:47:49.927Z,8.50
2023-02-27T13:50:21.238Z,8.80
2023-02-27T13:52:48.658Z,8.60
2023-02-27T13:55:36.984Z,8.60
2023-02-27T13:58:06.122Z,8.70
2023-02-27T14:00:37.787Z,8.50
2023-02-27T14:03:25.742Z,8.70
2023-02-27T14:05:57.439Z,8.70
2023-02-27T14:08:48.898Z,8.80
2023-02-27T14:11:24.302Z,8.80
2023-02-27T14:13:51.080Z,8.80
2023-02-27T14:16:44.155Z,8.90
2023-02-27T14:19:19.734Z,8.90
2023-02-27T14:22:01.019Z,8.90
2023-02-27T14:24:49.677Z,8.90
2023-02-27T14:27:29.305Z,8.90
2023-02-27T14:30:02.656Z,8.90
2023-02-27T14:32:39.047Z,8.90
2023-02-27T14:35:07.539Z,8.90
2023-02-27T14:37:36.397Z,9.00
2023-02-27T14:40:06.300Z,9.00
2023-02-27T14:43:10.741Z,9.00
2023-02-27T14:45:37.683Z,9.00
2023-02-27T14:48:10.204Z,9.00
2023-02-27T14:50:42.197Z,9.00
2023-02-27T14:53:25.071Z,9.00
2023-02-27T14:55:59.479Z,8.90
2023-02-27T14:58:27.300Z,8.90
2023-02-27T15:01:04.904Z,8.90
2023-02-27T15:03:52.784Z,8.80
2023-02-27T15:06:44.222Z,8.80
2023-02-27T15:09:24.439Z,8.60
2023-02-27T15:12:03.990Z,8.70
2023-02-27T15:14:37.453Z,8.60
2023-02-27T15:17:21.852Z,8.50
2023-02-27T15:19:53.806Z,8.50
2023-02-27T15:22:38.913Z,8.50
2023-02-27T15:25:08.003Z,8.10
2023-02-27T15:27:37.634Z,8.40
2023-02-27T15:30:05.761Z,8.40
2023-02-27T15:32:43.251Z,8.30
2023-02-27T15:35:32.001Z,8.40
2023-02-27T15:38:00.334Z,8.30
2023-02-27T15:40:30.785Z,8.30
2023-02-27T15:43:00.127Z,8.30
2023-02-27T15:45:35.811Z,8.30
2023-02-27T15:48:03.947Z,8.30
2023-02-27T15:50:37.922Z,8.30
2023-02-27T15:53:07.549Z,8.30
2023-02-27T15:55:39.503Z,8.30
2023-02-27T15:58:29.257Z,8.30
2023-02-27T16:01:07.213Z,8.40
2023-02-27T16:03:47.968Z,8.20
2023-02-27T16:06:33.205Z,8.30
2023-02-27T16:09:21.625Z,8.30
2023-02-27T16:11:49.411Z,8.30
2023-02-27T16:14:45.118Z,8.20
2023-02-27T16:17:31.664Z,8.30
2023-02-27T16:20:02.641Z,8.30
2023-02-27T16:22:30.523Z,8.30
2023-02-27T16:25:18.388Z,8.30
2023-02-27T16:27:50.330Z,8.30
2023-02-27T16:30:17.256Z,8.20
2023-02-27T16:32:44.445Z,8.20
2023-02-27T16:35:21.563Z,8.20
2023-02-27T16:37:50.512Z,8.10
2023-02-27T16:40:23.057Z,8.10
2023-02-27T16:42:51.930Z,8.20
2023-02-27T16:45:22.888Z,8.20
2023-02-27T16:47:53.432Z,8.10
2023-02-27T16:50:35.621Z,8.10
2023-02-27T16:53:02.671Z,8.10
2023-02-27T16:55:31.490Z,8.10
2023-02-27T16:57:59.262Z,8.10
2023-02-27T17:00:26.050Z,8.10
2023-02-27T17:02:52.819Z,8.10
2023-02-27T17:05:19.945Z,8.10
2023-02-27T17:07:46.776Z,8.10
2023-02-27T17:10:22.124Z,8.10
2023-02-27T17:12:48.989Z,8.10
2023-02-27T17:15:16.999Z,8.00
2023-02-27T17:17:45.208Z,8.00
2023-02-27T17:20:14.058Z,8.00
2023-02-27T17:22:44.473Z,8.00
2023-02-27T17:25:12.693Z,8.00
2023-02-27T17:27:42.410Z,8.00
2023-02-27T17:30:11.831Z,7.90
2023-02-27T17:32:38.785Z,7.90
2023-02-27T17:35:06.105Z,7.90
2023-02-27T17:37:32.987Z,7.90
2023-02-27T17:39:59.792Z,7.90
2023-02-27T17:42:26.638Z,7.90
2023-02-27T17:44:53.502Z,7.90
2023-02-27T17:47:20.532Z,7.80
2023-02-27T17:49:48.229Z,7.80
2023-02-27T17:52:15.726Z,7.80
2023-02-27T17:54:42.486Z,7.80
2023-02-27T17:57:10.496Z,7.80
2023-02-27T17:59:37.553Z,7.80
2023-02-27T18:02:04.332Z,7.80
2023-02-27T18:04:32.119Z,7.80
2023-02-27T18:06:58.928Z,7.80
2023-02-27T18:09:25.670Z,7.70
2023-02-27T18:11:52.439Z,7.70
2023-02-27T18:14:19.197Z,7.70
2023-02-27T18:16:45.964Z,7.70
2023-02-27T18:19:13.921Z,7.60
2023-02-27T18:21:42.572Z,7.60
2023-02-27T18:24:09.670Z,7.60
2023-02-27T18:26:36.684Z,7.60
2023-02-27T18:29:07.754Z,7.60
2023-02-27T18:31:40.238Z,7.60
2023-02-27T18:34:07.765Z,7.60
2023-02-27T18:36:35.649Z,7.60
2023-02-27T18:39:04.974Z,7.60
2023-02-27T18:41:32.259Z,7.50
2023-02-27T18:43:59.151Z,7.50
2023-02-27T18:46:26.215Z,7.50
2023-02-27T18:48:53.275Z,7.50
2023-02-27T18:51:20.455Z,7.50
2023-02-27T18:53:51.008Z,7.50
2023-02-27T18:56:22.848Z,7.40
2023-02-27T18:58:51.526Z,7.40
2023-02-27T19:01:30.629Z,7.40
2023-02-27T19:04:03.636Z,7.30
2023-02-27T19:06:40.909Z,7.30
2023-02-27T19:09:11.883Z,7.30
2023-02-27T19:11:39.313Z,7.30
2023-02-27T19:14:10.729Z,7.30
2023-02-27T19:16:37.681Z,7.20
2023-02-27T19:19:05.555Z,7.20
2023-02-27T19:21:33.660Z,7.20
2023-02-27T19:24:01.741Z,7.20
2023-02-27T19:26:29.673Z,7.20
2023-02-27T19:28:56.654Z,7.20
2023-02-27T19:31:25.291Z,7.20
2023-02-27T19:33:52.563Z,7.20
2023-02-27T19:36:22.554Z,7.20
2023-02-27T19:38:50.171Z,7.20
2023-02-27T19:41:18.421Z,7.20
2023-02-27T19:43:46.842Z,7.20
2023-02-27T19:46:24.525Z,7.10
2023-02-27T19:48:53.411Z,7.10
2023-02-27T19:51:21.266Z,7.10
2023-02-27T19:53:48.707Z,7.20
2023-02-27T19:56:25.034Z,7.10
2023-02-27T19:58:54.476Z,7.00
2023-02-27T20:01:34.249Z,7.10
2023-02-27T20:04:02.453Z,7.10
2023-02-27T20:06:33.498Z,7.10
2023-02-27T20:09:00.806Z,7.10
2023-02-27T20:11:31.608Z,7.10
2023-02-27T20:13:59.112Z,7.10
2023-02-27T20:16:29.044Z,7.10
2023-02-27T20:18:57.059Z,7.20
2023-02-27T20:21:26.876Z,7.00
2023-02-27T20:23:54.982Z,7.00
2023-02-27T20:26:26.283Z,7.00
2023-02-27T20:28:56.415Z,7.00
2023-02-27T20:31:28.258Z,7.00
2023-02-27T20:33:57.339Z,7.00
2023-02-27T20:36:24.357Z,7.00
2023-02-27T20:41:23.055Z,7.00
2023-02-27T20:43:50.188Z,7.00
2023-02-27T20:46:29.053Z,7.00
2023-02-27T20:49:02.269Z,7.00
2023-02-27T20:51:35.923Z,7.10
2023-02-27T20:54:06.513Z,6.90
2023-02-27T20:56:38.590Z,6.90
2023-02-27T20:59:08.539Z,6.90
2023-02-27T21:01:38.254Z,6.90
2023-02-27T21:04:05.863Z,7.00
2023-02-27T21:06:32.814Z,6.90
2023-02-27T21:09:05.430Z,6.90
2023-02-27T21:11:33.432Z,6.80
2023-02-27T21:19:04.856Z,7.00
2023-02-27T21:21:34.521Z,6.70
2023-02-27T21:24:01.683Z,6.80
2023-02-27T21:26:35.344Z,6.80
2023-02-27T21:29:14.416Z,6.60
2023-02-27T21:31:48.917Z,6.80
2023-02-27T21:34:27.968Z,6.80
2023-02-27T21:36:56.303Z,6.80
2023-02-27T21:39:28.540Z,6.80
2023-02-27T21:41:55.505Z,6.70
2023-02-27T21:44:26.347Z,6.70
2023-02-27T21:46:55.575Z,6.70
2023-02-27T21:49:27.595Z,6.70
2023-02-27T21:51:55.349Z,6.70
2023-02-27T21:54:22.465Z,6.60
2023-02-27T21:56:49.749Z,6.60
2023-02-27T21:59:19.085Z,6.60
2023-02-27T22:01:48.100Z,6.60
2023-02-27T22:04:17.500Z,6.60
2023-02-27T22:06:45.625Z,6.50
2023-02-27T22:09:12.628Z,6.60
2023-02-27T22:11:40.858Z,6.50
2023-02-27T22:14:09.198Z,6.50
2023-02-27T22:16:36.751Z,6.50
2023-02-27T22:19:08.887Z,6.50
2023-02-27T22:21:37.377Z,6.50
2023-02-27T22:24:05.152Z,6.50
2023-02-27T22:26:32.914Z,6.50
2023-02-27T22:29:00.246Z,6.40
2023-02-27T22:31:32.722Z,6.50
2023-02-27T22:34:05.416Z,6.40
2023-02-27T22:36:33.727Z,6.40
2023-02-27T22:39:01.631Z,6.40
2023-02-27T22:41:32.694Z,6.40
2023-02-27T22:44:01.841Z,6.40
2023-02-27T22:46:40.338Z,6.40
2023-02-27T22:49:18.072Z,6.30
2023-02-27T22:51:46.640Z,6.40
2023-02-27T22:54:16.257Z,6.40
2023-02-27T22:56:43.355Z,6.40
2023-02-27T22:59:10.730Z,6.30
2023-02-27T23:01:38.008Z,6.30
2023-02-27T23:04:09.089Z,6.30
2023-02-27T23:06:39.922Z,6.30
2023-02-27T23:09:12.172Z,6.30
2023-02-27T23:11:39.285Z,6.60
2023-02-27T23:14:07.778Z,6.30
2023-02-27T23:16:34.627Z,6.30
2023-02-27T23:19:02.449Z,6.40
2023-02-27T23:21:35.857Z,6.40
2023-02-27T23:24:07.942Z,6.40
2023-02-27T23:26:40.321Z,6.40
2023-02-27T23:29:08.348Z,6.30
2023-02-27T23:31:36.589Z,6.40
2023-02-27T23:34:05.970Z,6.40
2023-02-27T23:36:35.062Z,6.40
2023-02-27T23:39:03.748Z,6.40
2023-02-27T23:41:31.370Z,6.50
2023-02-27T23:43:58.355Z,6.50
2023-02-27T23:46:30.091Z,6.40
2023-02-27T23:49:01.225Z,6.40
2023-02-27T23:51:30.592Z,6.40
2023-02-27T23:53:59.203Z,6.40
2023-02-27T23:56:30.473Z,6.40
2023-02-27T23:59:04.712Z,6.40
